sensor_id;sensor_type;location;lat;lon;timestamp;P1;durP1;ratioP1;P2;durP2;ratioP2
10557;SDS011;5327;47.238;-2.304;2023-05-07T00:00:48;18.63;;;4.63;;
10557;SDS011;5327;47.238;-2.304;2023-05-07T00:03:14;9.03;;;3.57;;
10557;SDS011;5327;47.238;-2.304;2023-05-07T00:05:40;16.47;;;4.63;;
10557;SDS011;5327;47.238;-2.304;2023-05-07T00:08:07;18.80;;;4.90;;
10557;SDS011;5327;47.238;-2.304;2023-05-07T00:10:33;17.97;;;5.10;;
10557;SDS011;5327;47.238;-2.304;2023-05-07T00:12:59;25.73;;;6.07;;
10557;SDS011;5327;47.238;-2.304;2023-05-07T00:15:25;14.40;;;5.40;;
10557;SDS011;5327;47.238;-2.304;2023-05-07T00:17:51;23.60;;;7.20;;
10557;SDS011;5327;47.238;-2.304;2023-05-07T00:20:17;17.37;;;6.60;;
10557;SDS011;5327;47.238;-2.304;2023-05-07T00:22:43;13.20;;;4.97;;
10557;SDS011;5327;47.238;-2.304;2023-05-07T00:25:09;13.20;;;5.40;;
10557;SDS011;5327;47.238;-2.304;2023-05-07T00:27:35;17.87;;;6.10;;
10557;SDS011;5327;47.238;-2.304;2023-05-07T00:30:02;16.63;;;8.40;;
10557;SDS011;5327;47.238;-2.304;2023-05-07T00:32:28;21.00;;;6.80;;
10557;SDS011;5327;47.238;-2.304;2023-05-07T00:34:54;15.50;;;5.90;;
10557;SDS011;5327;47.238;-2.304;2023-05-07T00:37:20;16.53;;;6.70;;
10557;SDS011;5327;47.238;-2.304;2023-05-07T00:39:46;16.80;;;7.40;;
10557;SDS011;5327;47.238;-2.304;2023-05-07T00:42:12;15.97;;;5.60;;
10557;SDS011;5327;47.238;-2.304;2023-05-07T00:44:40;24.33;;;7.00;;
10557;SDS011;5327;47.238;-2.304;2023-05-07T00:47:06;32.37;;;7.20;;
10557;SDS011;5327;47.238;-2.304;2023-05-07T00:49:36;13.60;;;6.17;;
10557;SDS011;5327;47.238;-2.304;2023-05-07T00:52:03;20.80;;;7.20;;
10557;SDS011;5327;47.238;-2.304;2023-05-07T00:54:29;23.00;;;6.83;;
10557;SDS011;5327;47.238;-2.304;2023-05-07T00:56:55;18.97;;;7.87;;
10557;SDS011;5327;47.238;-2.304;2023-05-07T00:59:21;14.53;;;5.97;;
10557;SDS011;5327;47.238;-2.304;2023-05-07T01:01:47;14.90;;;5.70;;
10557;SDS011;5327;47.238;-2.304;2023-05-07T01:04:14;12.00;;;5.07;;
10557;SDS011;5327;47.238;-2.304;2023-05-07T01:06:40;16.90;;;5.97;;
10557;SDS011;5327;47.238;-2.304;2023-05-07T01:09:06;22.50;;;6.97;;
10557;SDS011;5327;47.238;-2.304;2023-05-07T01:11:34;13.23;;;5.93;;
10557;SDS011;5327;47.238;-2.304;2023-05-07T01:14:00;16.27;;;5.90;;
10557;SDS011;5327;47.238;-2.304;2023-05-07T01:16:26;13.67;;;5.13;;
10557;SDS011;5327;47.238;-2.304;2023-05-07T01:18:52;23.90;;;6.70;;
10557;SDS011;5327;47.238;-2.304;2023-05-07T01:21:18;19.10;;;5.67;;
10557;SDS011;5327;47.238;-2.304;2023-05-07T01:23:49;16.90;;;5.00;;
10557;SDS011;5327;47.238;-2.304;2023-05-07T01:26:15;25.00;;;5.93;;
10557;SDS011;5327;47.238;-2.304;2023-05-07T01:28:41;12.63;;;5.30;;
10557;SDS011;5327;47.238;-2.304;2023-05-07T01:31:07;15.83;;;4.57;;
10557;SDS011;5327;47.238;-2.304;2023-05-07T01:33:34;12.23;;;3.90;;
10557;SDS011;5327;47.238;-2.304;2023-05-07T01:36:01;10.93;;;4.57;;
10557;SDS011;5327;47.238;-2.304;2023-05-07T01:38:29;11.50;;;5.17;;
10557;SDS011;5327;47.238;-2.304;2023-05-07T01:40:55;15.00;;;4.50;;
10557;SDS011;5327;47.238;-2.304;2023-05-07T01:43:22;10.90;;;4.57;;
10557;SDS011;5327;47.238;-2.304;2023-05-07T01:45:48;14.23;;;4.63;;
10557;SDS011;5327;47.238;-2.304;2023-05-07T01:48:14;11.30;;;3.47;;
10557;SDS011;5327;47.238;-2.304;2023-05-07T01:50:41;14.83;;;5.20;;
10557;SDS011;5327;47.238;-2.304;2023-05-07T01:53:08;11.80;;;4.30;;
10557;SDS011;5327;47.238;-2.304;2023-05-07T01:55:34;15.63;;;4.63;;
10557;SDS011;5327;47.238;-2.304;2023-05-07T01:58:01;11.83;;;5.00;;
10557;SDS011;5327;47.238;-2.304;2023-05-07T02:00:28;12.73;;;4.70;;
10557;SDS011;5327;47.238;-2.304;2023-05-07T02:02:54;23.40;;;5.80;;
10557;SDS011;5327;47.238;-2.304;2023-05-07T02:05:20;12.07;;;4.57;;
10557;SDS011;5327;47.238;-2.304;2023-05-07T02:07:46;13.57;;;5.93;;
10557;SDS011;5327;47.238;-2.304;2023-05-07T02:10:12;17.83;;;5.97;;
10557;SDS011;5327;47.238;-2.304;2023-05-07T02:12:38;13.90;;;5.30;;
10557;SDS011;5327;47.238;-2.304;2023-05-07T02:15:04;22.63;;;6.40;;
10557;SDS011;5327;47.238;-2.304;2023-05-07T02:17:30;14.90;;;4.70;;
10557;SDS011;5327;47.238;-2.304;2023-05-07T02:19:58;14.00;;;4.67;;
10557;SDS011;5327;47.238;-2.304;2023-05-07T02:22:24;29.70;;;5.53;;
10557;SDS011;5327;47.238;-2.304;2023-05-07T02:24:50;19.97;;;8.27;;
10557;SDS011;5327;47.238;-2.304;2023-05-07T02:27:16;13.60;;;5.23;;
10557;SDS011;5327;47.238;-2.304;2023-05-07T02:29:42;20.03;;;5.50;;
10557;SDS011;5327;47.238;-2.304;2023-05-07T02:32:08;19.37;;;5.57;;
10557;SDS011;5327;47.238;-2.304;2023-05-07T02:34:34;11.53;;;5.10;;
10557;SDS011;5327;47.238;-2.304;2023-05-07T02:37:00;16.43;;;4.77;;
10557;SDS011;5327;47.238;-2.304;2023-05-07T02:39:26;17.93;;;5.00;;
10557;SDS011;5327;47.238;-2.304;2023-05-07T02:41:53;12.80;;;4.60;;
10557;SDS011;5327;47.238;-2.304;2023-05-07T02:44:19;15.93;;;4.70;;
10557;SDS011;5327;47.238;-2.304;2023-05-07T02:46:45;12.20;;;4.73;;
10557;SDS011;5327;47.238;-2.304;2023-05-07T02:49:11;19.03;;;5.80;;
10557;SDS011;5327;47.238;-2.304;2023-05-07T02:51:37;16.43;;;4.47;;
10557;SDS011;5327;47.238;-2.304;2023-05-07T02:54:03;21.53;;;4.93;;
10557;SDS011;5327;47.238;-2.304;2023-05-07T02:56:29;20.70;;;4.60;;
10557;SDS011;5327;47.238;-2.304;2023-05-07T02:58:55;12.23;;;4.27;;
10557;SDS011;5327;47.238;-2.304;2023-05-07T03:01:21;25.40;;;5.13;;
10557;SDS011;5327;47.238;-2.304;2023-05-07T03:03:47;15.03;;;3.73;;
10557;SDS011;5327;47.238;-2.304;2023-05-07T03:06:13;11.00;;;3.30;;
10557;SDS011;5327;47.238;-2.304;2023-05-07T03:08:40;11.33;;;3.70;;
10557;SDS011;5327;47.238;-2.304;2023-05-07T03:11:06;15.00;;;4.50;;
10557;SDS011;5327;47.238;-2.304;2023-05-07T03:13:32;9.40;;;4.37;;
10557;SDS011;5327;47.238;-2.304;2023-05-07T03:15:58;10.10;;;3.30;;
10557;SDS011;5327;47.238;-2.304;2023-05-07T03:18:24;8.57;;;3.10;;
10557;SDS011;5327;47.238;-2.304;2023-05-07T03:20:51;13.70;;;4.00;;
10557;SDS011;5327;47.238;-2.304;2023-05-07T03:23:17;15.53;;;3.97;;
10557;SDS011;5327;47.238;-2.304;2023-05-07T03:25:43;10.40;;;4.37;;
10557;SDS011;5327;47.238;-2.304;2023-05-07T03:28:09;17.63;;;3.77;;
10557;SDS011;5327;47.238;-2.304;2023-05-07T03:30:35;8.20;;;2.90;;
10557;SDS011;5327;47.238;-2.304;2023-05-07T03:33:01;18.97;;;3.90;;
10557;SDS011;5327;47.238;-2.304;2023-05-07T03:35:27;16.47;;;3.87;;
10557;SDS011;5327;47.238;-2.304;2023-05-07T03:37:53;13.03;;;3.60;;
10557;SDS011;5327;47.238;-2.304;2023-05-07T03:40:19;14.00;;;3.67;;
10557;SDS011;5327;47.238;-2.304;2023-05-07T03:42:45;23.63;;;3.90;;
10557;SDS011;5327;47.238;-2.304;2023-05-07T03:45:11;10.20;;;3.63;;
10557;SDS011;5327;47.238;-2.304;2023-05-07T03:47:37;9.17;;;3.27;;
10557;SDS011;5327;47.238;-2.304;2023-05-07T03:50:04;16.47;;;5.00;;
10557;SDS011;5327;47.238;-2.304;2023-05-07T03:52:30;15.73;;;4.00;;
10557;SDS011;5327;47.238;-2.304;2023-05-07T03:54:56;8.10;;;2.93;;
10557;SDS011;5327;47.238;-2.304;2023-05-07T03:57:22;7.40;;;3.27;;
10557;SDS011;5327;47.238;-2.304;2023-05-07T03:59:48;20.53;;;3.57;;
10557;SDS011;5327;47.238;-2.304;2023-05-07T04:02:14;12.90;;;3.40;;
10557;SDS011;5327;47.238;-2.304;2023-05-07T04:04:40;13.27;;;3.97;;
10557;SDS011;5327;47.238;-2.304;2023-05-07T04:07:06;12.67;;;4.07;;
10557;SDS011;5327;47.238;-2.304;2023-05-07T04:09:32;8.97;;;3.40;;
10557;SDS011;5327;47.238;-2.304;2023-05-07T04:11:58;6.70;;;2.70;;
10557;SDS011;5327;47.238;-2.304;2023-05-07T04:14:24;11.50;;;3.37;;
10557;SDS011;5327;47.238;-2.304;2023-05-07T04:16:50;18.30;;;3.77;;
10557;SDS011;5327;47.238;-2.304;2023-05-07T04:19:16;11.03;;;3.50;;
10557;SDS011;5327;47.238;-2.304;2023-05-07T04:21:42;8.77;;;3.60;;
10557;SDS011;5327;47.238;-2.304;2023-05-07T04:24:08;9.50;;;3.20;;
10557;SDS011;5327;47.238;-2.304;2023-05-07T04:26:35;14.40;;;3.03;;
10557;SDS011;5327;47.238;-2.304;2023-05-07T04:29:01;8.63;;;2.43;;
10557;SDS011;5327;47.238;-2.304;2023-05-07T04:31:27;14.40;;;3.03;;
10557;SDS011;5327;47.238;-2.304;2023-05-07T04:33:53;10.30;;;2.53;;
10557;SDS011;5327;47.238;-2.304;2023-05-07T04:36:19;11.33;;;2.83;;
10557;SDS011;5327;47.238;-2.304;2023-05-07T04:38:46;6.50;;;2.40;;
10557;SDS011;5327;47.238;-2.304;2023-05-07T04:41:12;6.13;;;2.77;;
10557;SDS011;5327;47.238;-2.304;2023-05-07T04:43:39;10.67;;;3.10;;
10557;SDS011;5327;47.238;-2.304;2023-05-07T04:46:05;15.93;;;3.30;;
10557;SDS011;5327;47.238;-2.304;2023-05-07T04:48:31;18.20;;;3.03;;
10557;SDS011;5327;47.238;-2.304;2023-05-07T04:50:57;15.07;;;5.23;;
10557;SDS011;5327;47.238;-2.304;2023-05-07T04:53:23;9.43;;;3.50;;
10557;SDS011;5327;47.238;-2.304;2023-05-07T04:55:54;15.50;;;4.47;;
10557;SDS011;5327;47.238;-2.304;2023-05-07T04:58:20;16.90;;;5.60;;
10557;SDS011;5327;47.238;-2.304;2023-05-07T05:00:46;15.47;;;3.40;;
10557;SDS011;5327;47.238;-2.304;2023-05-07T05:03:12;22.17;;;5.00;;
10557;SDS011;5327;47.238;-2.304;2023-05-07T05:05:38;18.83;;;4.17;;
10557;SDS011;5327;47.238;-2.304;2023-05-07T05:08:04;10.73;;;3.33;;
10557;SDS011;5327;47.238;-2.304;2023-05-07T05:10:30;20.70;;;3.80;;
10557;SDS011;5327;47.238;-2.304;2023-05-07T05:12:56;13.57;;;3.83;;
10557;SDS011;5327;47.238;-2.304;2023-05-07T05:15:22;7.17;;;2.70;;
10557;SDS011;5327;47.238;-2.304;2023-05-07T05:17:48;12.03;;;3.40;;
10557;SDS011;5327;47.238;-2.304;2023-05-07T05:20:14;14.23;;;3.73;;
10557;SDS011;5327;47.238;-2.304;2023-05-07T05:22:41;10.40;;;3.43;;
10557;SDS011;5327;47.238;-2.304;2023-05-07T05:25:07;15.43;;;3.70;;
10557;SDS011;5327;47.238;-2.304;2023-05-07T05:27:34;13.13;;;2.87;;
10557;SDS011;5327;47.238;-2.304;2023-05-07T05:30:00;19.00;;;4.30;;
10557;SDS011;5327;47.238;-2.304;2023-05-07T05:32:26;13.40;;;3.63;;
10557;SDS011;5327;47.238;-2.304;2023-05-07T05:34:52;10.80;;;4.30;;
10557;SDS011;5327;47.238;-2.304;2023-05-07T05:37:18;9.70;;;3.63;;
10557;SDS011;5327;47.238;-2.304;2023-05-07T05:39:45;13.47;;;3.60;;
10557;SDS011;5327;47.238;-2.304;2023-05-07T05:42:11;15.77;;;4.73;;
10557;SDS011;5327;47.238;-2.304;2023-05-07T05:44:37;24.57;;;4.97;;
10557;SDS011;5327;47.238;-2.304;2023-05-07T05:47:03;10.37;;;3.97;;
10557;SDS011;5327;47.238;-2.304;2023-05-07T05:49:29;18.77;;;4.73;;
10557;SDS011;5327;47.238;-2.304;2023-05-07T05:51:55;12.87;;;3.80;;
10557;SDS011;5327;47.238;-2.304;2023-05-07T05:54:21;24.00;;;4.67;;
10557;SDS011;5327;47.238;-2.304;2023-05-07T05:56:47;16.00;;;5.27;;
10557;SDS011;5327;47.238;-2.304;2023-05-07T05:59:13;19.03;;;3.33;;
10557;SDS011;5327;47.238;-2.304;2023-05-07T06:01:39;9.47;;;3.20;;
10557;SDS011;5327;47.238;-2.304;2023-05-07T06:04:05;9.80;;;3.30;;
10557;SDS011;5327;47.238;-2.304;2023-05-07T06:06:31;11.20;;;3.57;;
10557;SDS011;5327;47.238;-2.304;2023-05-07T06:08:57;15.83;;;3.77;;
10557;SDS011;5327;47.238;-2.304;2023-05-07T06:11:23;9.60;;;2.90;;
10557;SDS011;5327;47.238;-2.304;2023-05-07T06:13:50;12.90;;;2.47;;
10557;SDS011;5327;47.238;-2.304;2023-05-07T06:16:16;6.43;;;2.17;;
10557;SDS011;5327;47.238;-2.304;2023-05-07T06:18:42;8.40;;;3.23;;
10557;SDS011;5327;47.238;-2.304;2023-05-07T06:21:10;11.60;;;3.33;;
10557;SDS011;5327;47.238;-2.304;2023-05-07T06:23:36;11.40;;;3.00;;
10557;SDS011;5327;47.238;-2.304;2023-05-07T06:26:02;11.00;;;3.20;;
10557;SDS011;5327;47.238;-2.304;2023-05-07T06:28:28;8.13;;;3.60;;
10557;SDS011;5327;47.238;-2.304;2023-05-07T06:30:55;11.13;;;2.97;;
10557;SDS011;5327;47.238;-2.304;2023-05-07T06:33:21;12.80;;;3.00;;
10557;SDS011;5327;47.238;-2.304;2023-05-07T06:35:47;10.00;;;3.00;;
10557;SDS011;5327;47.238;-2.304;2023-05-07T06:38:13;12.23;;;2.80;;
10557;SDS011;5327;47.238;-2.304;2023-05-07T06:40:39;10.33;;;3.00;;
10557;SDS011;5327;47.238;-2.304;2023-05-07T06:43:05;7.17;;;2.40;;
10557;SDS011;5327;47.238;-2.304;2023-05-07T06:45:32;7.13;;;1.90;;
10557;SDS011;5327;47.238;-2.304;2023-05-07T06:47:58;10.00;;;2.33;;
10557;SDS011;5327;47.238;-2.304;2023-05-07T06:50:24;4.23;;;2.17;;
10557;SDS011;5327;47.238;-2.304;2023-05-07T06:52:50;6.67;;;2.40;;
10557;SDS011;5327;47.238;-2.304;2023-05-07T06:55:16;10.17;;;2.30;;
10557;SDS011;5327;47.238;-2.304;2023-05-07T06:57:42;5.57;;;2.53;;
10557;SDS011;5327;47.238;-2.304;2023-05-07T07:00:08;5.00;;;2.50;;
10557;SDS011;5327;47.238;-2.304;2023-05-07T07:02:34;9.10;;;2.73;;
10557;SDS011;5327;47.238;-2.304;2023-05-07T07:05:00;7.90;;;2.83;;
10557;SDS011;5327;47.238;-2.304;2023-05-07T07:07:26;12.03;;;2.33;;
10557;SDS011;5327;47.238;-2.304;2023-05-07T07:09:52;7.10;;;2.70;;
10557;SDS011;5327;47.238;-2.304;2023-05-07T07:12:18;13.93;;;4.00;;
10557;SDS011;5327;47.238;-2.304;2023-05-07T07:14:45;16.60;;;2.90;;
10557;SDS011;5327;47.238;-2.304;2023-05-07T07:17:11;9.97;;;3.80;;
10557;SDS011;5327;47.238;-2.304;2023-05-07T07:19:37;13.17;;;2.77;;
10557;SDS011;5327;47.238;-2.304;2023-05-07T07:22:04;6.27;;;2.97;;
10557;SDS011;5327;47.238;-2.304;2023-05-07T07:24:30;12.33;;;2.80;;
10557;SDS011;5327;47.238;-2.304;2023-05-07T07:26:56;5.93;;;1.80;;
10557;SDS011;5327;47.238;-2.304;2023-05-07T07:29:22;4.93;;;2.07;;
10557;SDS011;5327;47.238;-2.304;2023-05-07T07:31:50;5.10;;;2.10;;
10557;SDS011;5327;47.238;-2.304;2023-05-07T07:34:16;3.50;;;1.67;;
10557;SDS011;5327;47.238;-2.304;2023-05-07T07:36:42;3.87;;;2.30;;
10557;SDS011;5327;47.238;-2.304;2023-05-07T07:39:08;6.33;;;2.00;;
10557;SDS011;5327;47.238;-2.304;2023-05-07T07:41:34;9.50;;;2.40;;
10557;SDS011;5327;47.238;-2.304;2023-05-07T07:44:00;6.50;;;2.47;;
10557;SDS011;5327;47.238;-2.304;2023-05-07T07:46:28;6.83;;;2.00;;
10557;SDS011;5327;47.238;-2.304;2023-05-07T07:48:55;4.73;;;1.90;;
10557;SDS011;5327;47.238;-2.304;2023-05-07T07:51:24;3.00;;;1.50;;
10557;SDS011;5327;47.238;-2.304;2023-05-07T07:53:50;3.67;;;1.60;;
10557;SDS011;5327;47.238;-2.304;2023-05-07T07:56:16;4.23;;;1.70;;
10557;SDS011;5327;47.238;-2.304;2023-05-07T07:58:42;9.33;;;2.07;;
10557;SDS011;5327;47.238;-2.304;2023-05-07T08:01:08;7.03;;;2.00;;
10557;SDS011;5327;47.238;-2.304;2023-05-07T08:03:34;5.00;;;1.30;;
10557;SDS011;5327;47.238;-2.304;2023-05-07T08:06:00;5.33;;;2.23;;
10557;SDS011;5327;47.238;-2.304;2023-05-07T08:08:26;5.13;;;1.50;;
10557;SDS011;5327;47.238;-2.304;2023-05-07T08:10:52;3.23;;;1.70;;
10557;SDS011;5327;47.238;-2.304;2023-05-07T08:13:18;3.80;;;1.70;;
10557;SDS011;5327;47.238;-2.304;2023-05-07T08:15:44;3.50;;;1.90;;
10557;SDS011;5327;47.238;-2.304;2023-05-07T08:18:10;4.83;;;1.90;;
10557;SDS011;5327;47.238;-2.304;2023-05-07T08:20:36;5.17;;;2.03;;
10557;SDS011;5327;47.238;-2.304;2023-05-07T08:23:04;3.60;;;1.93;;
10557;SDS011;5327;47.238;-2.304;2023-05-07T08:25:35;8.60;;;2.43;;
10557;SDS011;5327;47.238;-2.304;2023-05-07T08:28:01;2.70;;;1.33;;
10557;SDS011;5327;47.238;-2.304;2023-05-07T08:30:28;3.47;;;1.67;;
10557;SDS011;5327;47.238;-2.304;2023-05-07T08:32:54;2.70;;;1.40;;
10557;SDS011;5327;47.238;-2.304;2023-05-07T08:35:20;22.13;;;2.63;;
10557;SDS011;5327;47.238;-2.304;2023-05-07T08:37:46;4.00;;;1.80;;
10557;SDS011;5327;47.238;-2.304;2023-05-07T08:40:12;4.37;;;1.67;;
10557;SDS011;5327;47.238;-2.304;2023-05-07T08:42:38;7.63;;;2.13;;
10557;SDS011;5327;47.238;-2.304;2023-05-07T08:45:08;9.57;;;1.87;;
10557;SDS011;5327;47.238;-2.304;2023-05-07T08:47:45;7.63;;;1.50;;
10557;SDS011;5327;47.238;-2.304;2023-05-07T08:50:12;5.27;;;2.07;;
10557;SDS011;5327;47.238;-2.304;2023-05-07T08:52:39;5.50;;;2.13;;
10557;SDS011;5327;47.238;-2.304;2023-05-07T08:55:06;2.20;;;1.30;;
10557;SDS011;5327;47.238;-2.304;2023-05-07T08:57:32;4.13;;;1.37;;
10557;SDS011;5327;47.238;-2.304;2023-05-07T08:59:59;3.17;;;1.87;;
10557;SDS011;5327;47.238;-2.304;2023-05-07T09:02:25;7.43;;;1.90;;
10557;SDS011;5327;47.238;-2.304;2023-05-07T09:04:52;5.77;;;2.20;;
10557;SDS011;5327;47.238;-2.304;2023-05-07T09:07:19;7.03;;;1.90;;
10557;SDS011;5327;47.238;-2.304;2023-05-07T09:09:45;8.80;;;2.83;;
10557;SDS011;5327;47.238;-2.304;2023-05-07T09:12:12;3.13;;;1.53;;
10557;SDS011;5327;47.238;-2.304;2023-05-07T09:14:38;4.53;;;1.73;;
10557;SDS011;5327;47.238;-2.304;2023-05-07T09:17:04;4.27;;;1.70;;
10557;SDS011;5327;47.238;-2.304;2023-05-07T09:19:30;3.47;;;1.60;;
10557;SDS011;5327;47.238;-2.304;2023-05-07T09:22:00;3.30;;;1.60;;
10557;SDS011;5327;47.238;-2.304;2023-05-07T09:24:26;4.40;;;1.50;;
10557;SDS011;5327;47.238;-2.304;2023-05-07T09:26:57;3.50;;;1.40;;
10557;SDS011;5327;47.238;-2.304;2023-05-07T09:29:24;3.90;;;1.60;;
10557;SDS011;5327;47.238;-2.304;2023-05-07T09:31:50;4.40;;;1.33;;
10557;SDS011;5327;47.238;-2.304;2023-05-07T09:34:16;5.20;;;1.90;;
10557;SDS011;5327;47.238;-2.304;2023-05-07T09:36:42;8.57;;;1.83;;
10557;SDS011;5327;47.238;-2.304;2023-05-07T09:39:08;3.03;;;1.40;;
10557;SDS011;5327;47.238;-2.304;2023-05-07T09:41:42;2.90;;;1.27;;
10557;SDS011;5327;47.238;-2.304;2023-05-07T09:44:09;4.03;;;1.70;;
10557;SDS011;5327;47.238;-2.304;2023-05-07T09:46:36;4.07;;;1.43;;
10557;SDS011;5327;47.238;-2.304;2023-05-07T09:49:02;3.80;;;1.50;;
10557;SDS011;5327;47.238;-2.304;2023-05-07T09:51:29;4.23;;;1.80;;
10557;SDS011;5327;47.238;-2.304;2023-05-07T09:53:56;4.17;;;1.80;;
10557;SDS011;5327;47.238;-2.304;2023-05-07T09:56:24;3.67;;;1.63;;
10557;SDS011;5327;47.238;-2.304;2023-05-07T09:58:52;3.00;;;1.57;;
10557;SDS011;5327;47.238;-2.304;2023-05-07T10:01:19;4.00;;;1.53;;
10557;SDS011;5327;47.238;-2.304;2023-05-07T10:03:47;4.90;;;1.73;;
10557;SDS011;5327;47.238;-2.304;2023-05-07T10:06:15;3.17;;;1.40;;
10557;SDS011;5327;47.238;-2.304;2023-05-07T10:08:41;2.27;;;1.10;;
10557;SDS011;5327;47.238;-2.304;2023-05-07T10:11:08;2.30;;;1.30;;
10557;SDS011;5327;47.238;-2.304;2023-05-07T10:13:35;3.27;;;1.40;;
10557;SDS011;5327;47.238;-2.304;2023-05-07T10:16:03;3.37;;;1.73;;
10557;SDS011;5327;47.238;-2.304;2023-05-07T10:18:30;4.17;;;1.50;;
10557;SDS011;5327;47.238;-2.304;2023-05-07T10:20:59;2.70;;;1.20;;
10557;SDS011;5327;47.238;-2.304;2023-05-07T10:23:27;3.60;;;1.63;;
10557;SDS011;5327;47.238;-2.304;2023-05-07T10:25:53;3.50;;;1.70;;
10557;SDS011;5327;47.238;-2.304;2023-05-07T10:28:21;5.83;;;2.30;;
10557;SDS011;5327;47.238;-2.304;2023-05-07T10:31:08;4.33;;;1.67;;
10557;SDS011;5327;47.238;-2.304;2023-05-07T10:33:36;5.73;;;1.90;;
10557;SDS011;5327;47.238;-2.304;2023-05-07T10:36:03;10.07;;;3.07;;
10557;SDS011;5327;47.238;-2.304;2023-05-07T10:38:32;3.77;;;1.60;;
10557;SDS011;5327;47.238;-2.304;2023-05-07T10:40:58;7.17;;;1.90;;
10557;SDS011;5327;47.238;-2.304;2023-05-07T10:43:25;6.23;;;1.90;;
10557;SDS011;5327;47.238;-2.304;2023-05-07T10:49:05;2.30;;;1.30;;
10557;SDS011;5327;47.238;-2.304;2023-05-07T10:51:22;3.43;;;1.70;;
10557;SDS011;5327;47.238;-2.304;2023-05-07T10:53:48;4.37;;;1.63;;
10557;SDS011;5327;47.238;-2.304;2023-05-07T10:58:43;4.80;;;1.60;;
10557;SDS011;5327;47.238;-2.304;2023-05-07T11:01:10;4.10;;;1.40;;
10557;SDS011;5327;47.238;-2.304;2023-05-07T11:03:37;3.40;;;2.00;;
10557;SDS011;5327;47.238;-2.304;2023-05-07T11:06:23;4.80;;;2.03;;
10557;SDS011;5327;47.238;-2.304;2023-05-07T11:11:33;6.70;;;2.33;;
10557;SDS011;5327;47.238;-2.304;2023-05-07T11:14:05;3.50;;;1.77;;
10557;SDS011;5327;47.238;-2.304;2023-05-07T11:16:31;3.37;;;1.33;;
10557;SDS011;5327;47.238;-2.304;2023-05-07T11:18:58;2.53;;;1.70;;
10557;SDS011;5327;47.238;-2.304;2023-05-07T11:21:40;4.97;;;1.80;;
10557;SDS011;5327;47.238;-2.304;2023-05-07T11:24:07;4.13;;;2.30;;
10557;SDS011;5327;47.238;-2.304;2023-05-07T11:26:44;4.97;;;1.90;;
10557;SDS011;5327;47.238;-2.304;2023-05-07T11:29:14;5.43;;;2.53;;
10557;SDS011;5327;47.238;-2.304;2023-05-07T11:31:40;3.83;;;2.23;;
10557;SDS011;5327;47.238;-2.304;2023-05-07T11:34:06;3.87;;;2.00;;
10557;SDS011;5327;47.238;-2.304;2023-05-07T11:36:33;4.93;;;2.00;;
10557;SDS011;5327;47.238;-2.304;2023-05-07T11:38:59;7.40;;;2.50;;
10557;SDS011;5327;47.238;-2.304;2023-05-07T11:41:35;4.03;;;1.70;;
10557;SDS011;5327;47.238;-2.304;2023-05-07T11:44:04;5.17;;;2.00;;
10557;SDS011;5327;47.238;-2.304;2023-05-07T11:46:30;3.43;;;1.63;;
10557;SDS011;5327;47.238;-2.304;2023-05-07T11:48:56;8.93;;;2.00;;
10557;SDS011;5327;47.238;-2.304;2023-05-07T11:51:23;10.53;;;2.50;;
10557;SDS011;5327;47.238;-2.304;2023-05-07T11:53:50;6.33;;;1.87;;
10557;SDS011;5327;47.238;-2.304;2023-05-07T11:56:17;4.17;;;1.47;;
10557;SDS011;5327;47.238;-2.304;2023-05-07T11:58:43;4.00;;;1.60;;
10557;SDS011;5327;47.238;-2.304;2023-05-07T12:01:10;7.73;;;1.97;;
10557;SDS011;5327;47.238;-2.304;2023-05-07T12:03:40;3.50;;;1.80;;
10557;SDS011;5327;47.238;-2.304;2023-05-07T12:06:11;6.33;;;2.57;;
10557;SDS011;5327;47.238;-2.304;2023-05-07T12:08:38;5.37;;;3.03;;
10557;SDS011;5327;47.238;-2.304;2023-05-07T12:11:06;6.50;;;1.80;;
10557;SDS011;5327;47.238;-2.304;2023-05-07T12:13:33;3.57;;;1.97;;
10557;SDS011;5327;47.238;-2.304;2023-05-07T12:15:59;3.97;;;2.10;;
10557;SDS011;5327;47.238;-2.304;2023-05-07T12:18:28;7.03;;;2.03;;
10557;SDS011;5327;47.238;-2.304;2023-05-07T12:20:55;4.30;;;2.00;;
10557;SDS011;5327;47.238;-2.304;2023-05-07T12:23:21;2.90;;;1.50;;
10557;SDS011;5327;47.238;-2.304;2023-05-07T12:25:47;6.73;;;1.80;;
10557;SDS011;5327;47.238;-2.304;2023-05-07T12:28:14;10.60;;;2.20;;
10557;SDS011;5327;47.238;-2.304;2023-05-07T12:30:41;2.60;;;1.47;;
10557;SDS011;5327;47.238;-2.304;2023-05-07T12:33:08;4.90;;;1.80;;
10557;SDS011;5327;47.238;-2.304;2023-05-07T12:35:38;4.13;;;1.83;;
10557;SDS011;5327;47.238;-2.304;2023-05-07T12:38:08;3.60;;;1.53;;
10557;SDS011;5327;47.238;-2.304;2023-05-07T12:40:45;6.40;;;1.87;;
10557;SDS011;5327;47.238;-2.304;2023-05-07T12:43:18;7.40;;;1.83;;
10557;SDS011;5327;47.238;-2.304;2023-05-07T12:45:45;5.70;;;1.40;;
10557;SDS011;5327;47.238;-2.304;2023-05-07T12:48:12;7.13;;;2.10;;
10557;SDS011;5327;47.238;-2.304;2023-05-07T12:50:38;5.00;;;1.70;;
10557;SDS011;5327;47.238;-2.304;2023-05-07T12:53:05;13.03;;;2.10;;
10557;SDS011;5327;47.238;-2.304;2023-05-07T12:55:39;12.40;;;1.90;;
10557;SDS011;5327;47.238;-2.304;2023-05-07T12:58:06;7.50;;;2.13;;
10557;SDS011;5327;47.238;-2.304;2023-05-07T13:00:35;4.17;;;1.93;;
10557;SDS011;5327;47.238;-2.304;2023-05-07T13:03:01;12.57;;;2.47;;
10557;SDS011;5327;47.238;-2.304;2023-05-07T13:05:27;5.60;;;1.90;;
10557;SDS011;5327;47.238;-2.304;2023-05-07T13:07:54;7.60;;;2.93;;
10557;SDS011;5327;47.238;-2.304;2023-05-07T13:10:21;11.57;;;2.70;;
10557;SDS011;5327;47.238;-2.304;2023-05-07T13:12:48;9.33;;;2.70;;
10557;SDS011;5327;47.238;-2.304;2023-05-07T13:15:14;5.80;;;2.10;;
10557;SDS011;5327;47.238;-2.304;2023-05-07T13:17:40;5.17;;;1.90;;
10557;SDS011;5327;47.238;-2.304;2023-05-07T13:20:06;7.27;;;2.17;;
10557;SDS011;5327;47.238;-2.304;2023-05-07T13:22:33;6.80;;;2.30;;
10557;SDS011;5327;47.238;-2.304;2023-05-07T13:24:59;8.33;;;2.30;;
10557;SDS011;5327;47.238;-2.304;2023-05-07T13:27:25;5.73;;;2.30;;
10557;SDS011;5327;47.238;-2.304;2023-05-07T13:29:51;13.70;;;3.20;;
10557;SDS011;5327;47.238;-2.304;2023-05-07T13:32:17;5.77;;;1.80;;
10557;SDS011;5327;47.238;-2.304;2023-05-07T13:34:43;7.43;;;2.10;;
10557;SDS011;5327;47.238;-2.304;2023-05-07T13:37:09;6.77;;;2.30;;
10557;SDS011;5327;47.238;-2.304;2023-05-07T13:39:35;7.60;;;2.40;;
10557;SDS011;5327;47.238;-2.304;2023-05-07T13:42:02;6.13;;;2.13;;
10557;SDS011;5327;47.238;-2.304;2023-05-07T13:44:28;8.20;;;2.77;;
10557;SDS011;5327;47.238;-2.304;2023-05-07T13:46:54;6.63;;;1.90;;
10557;SDS011;5327;47.238;-2.304;2023-05-07T13:49:20;7.03;;;2.20;;
10557;SDS011;5327;47.238;-2.304;2023-05-07T13:51:46;12.23;;;2.50;;
10557;SDS011;5327;47.238;-2.304;2023-05-07T13:54:12;6.63;;;2.03;;
10557;SDS011;5327;47.238;-2.304;2023-05-07T13:56:38;10.47;;;2.30;;
10557;SDS011;5327;47.238;-2.304;2023-05-07T13:59:04;4.50;;;1.73;;
10557;SDS011;5327;47.238;-2.304;2023-05-07T14:01:30;10.00;;;2.40;;
10557;SDS011;5327;47.238;-2.304;2023-05-07T14:03:56;13.20;;;2.20;;
10557;SDS011;5327;47.238;-2.304;2023-05-07T14:06:24;5.60;;;2.03;;
10557;SDS011;5327;47.238;-2.304;2023-05-07T14:08:50;5.83;;;1.70;;
10557;SDS011;5327;47.238;-2.304;2023-05-07T14:11:16;6.03;;;1.83;;
10557;SDS011;5327;47.238;-2.304;2023-05-07T14:13:43;9.13;;;2.50;;
10557;SDS011;5327;47.238;-2.304;2023-05-07T14:16:09;4.80;;;2.00;;
10557;SDS011;5327;47.238;-2.304;2023-05-07T14:18:35;9.23;;;2.47;;
10557;SDS011;5327;47.238;-2.304;2023-05-07T14:21:02;11.37;;;3.53;;
10557;SDS011;5327;47.238;-2.304;2023-05-07T14:23:28;9.13;;;4.83;;
10557;SDS011;5327;47.238;-2.304;2023-05-07T14:25:54;10.57;;;2.80;;
10557;SDS011;5327;47.238;-2.304;2023-05-07T14:28:22;14.30;;;3.23;;
10557;SDS011;5327;47.238;-2.304;2023-05-07T14:30:48;17.90;;;2.90;;
10557;SDS011;5327;47.238;-2.304;2023-05-07T14:33:14;10.33;;;3.17;;
10557;SDS011;5327;47.238;-2.304;2023-05-07T14:35:40;10.57;;;2.70;;
10557;SDS011;5327;47.238;-2.304;2023-05-07T14:38:06;11.73;;;2.93;;
10557;SDS011;5327;47.238;-2.304;2023-05-07T14:40:32;7.03;;;3.00;;
10557;SDS011;5327;47.238;-2.304;2023-05-07T14:42:58;6.50;;;2.27;;
10557;SDS011;5327;47.238;-2.304;2023-05-07T14:45:25;11.03;;;2.63;;